• Join FlightAware (Why Join?)
  • Login
  • US Flag 
05:41AM EDT


 

Airport Tracker/Info


-or-


 

Live Flight TrackerFlight Track Log ✈ N830QS ✈ 19-Aug-2013 ✈ KSAN - KPHX

Flight Track Log - Related Links

Times and Time Zones

All times are in EDT time to prevent confusion due to time zone crossing. See the N830QS flight status page for this flight to view local times or setup timezone preferences in your user account.

Time Position Orientation Groundspeed Altitude Reporting Facility
EDT Latitude Longitude Course Direction KTS MPH feet Rate Location/Type
03:21PM 32.7417 -117.2269 285° West 202 232 2,300  Level Los Angeles Center
03:22PM 32.7581 -117.3022 285° West 228 262 3,800 2,400 Climbing Los Angeles Center
03:23PM 32.6922 -117.3156 190° South 247 284 7,800 3,180 Climbing Los Angeles Center
03:24PM 32.6514 -117.2478 126° Southeast 261 300 10,400 2,160 Climbing Los Angeles Center
03:25PM 32.6353 -117.1464 101° East 312 359 12,300 1,740 Climbing Los Angeles Center
03:26PM 32.6231 -117.0606 100° East 324 373 14,100 2,160 Climbing Los Angeles Center
03:27PM 32.6183 -116.9011 92° East 359 413 16,800 2,160 Climbing Los Angeles Center
03:28PM 32.6297 -116.7833 83° East 360 414 18,600 1,680 Climbing Los Angeles Center
03:30PM 32.6411 -116.6622 84° East 370 426 20,300 1,500 Climbing Los Angeles Center
03:31PM 32.6528 -116.5397 84° East 376 433 21,800 1,380 Climbing Los Angeles Center
03:32PM 32.6669 -116.3903 84° East 386 444 23,200 1,080 Climbing Los Angeles Center
03:33PM 32.7008 -116.2944 67° East 399 459 24,100 840 Climbing Los Angeles Center
03:34PM 32.7150 -116.1397 84° East 398 458 25,000 420 Climbing Los Angeles Center
03:35PM 32.7228 -116.0056 86° East 409 471 25,000  Level Los Angeles Center
03:36PM 32.7317 -115.8433 86° East 412 474 25,000  Level Los Angeles Center
03:37PM 32.7386 -115.7078 86° East 414 476 25,000  Level Los Angeles Center
03:38PM 32.7456 -115.5731 86° East 410 472 25,000  Level Los Angeles Center
03:39PM 32.7506 -115.4375 87° East 411 473 25,000  Level Los Angeles Center
03:40PM 32.7542 -115.3019 88° East 413 475 25,000  Level Los Angeles Center
03:41PM 32.7583 -115.1653 88° East 414 476 25,000  Level Los Angeles Center
03:42PM 32.7631 -115.0033 88° East 410 472 25,000  Level Los Angeles Center
03:43PM 32.7639 -114.8697 90° East 406 467 25,000  Level Los Angeles Center
03:44PM 32.7669 -114.7356 88° East 406 467 25,000  Level Los Angeles Center
03:45PM 32.7697 -114.6047 89° East 398 458 25,000  Level Los Angeles Center
03:46PM 32.7714 -114.4733 89° East 398 458 25,000  Level Los Angeles Center
03:47PM 32.7725 -114.3150 89° East 399 459 25,000  Level Los Angeles Center
03:48PM 32.7753 -114.1861 88° East 392 451 25,000  Level Los Angeles Center
03:49PM 32.7758 -114.0572 90° East 389 448 25,000  Level Los Angeles Center
03:50PM 32.7833 -113.9236 86° East 405 466 25,000  Level Los Angeles Center
03:51PM 32.8042 -113.7900 79° East 409 471 25,000  Level Los Angeles Center
03:52PM 32.8628 -113.6694 60° Northeast 417 480 25,000  Level Los Angeles Center
03:53PM 32.9197 -113.5561 59° Northeast 421 484 25,000  Level Albuquerque Center
03:54PM 32.9794 -113.4350 60° Northeast 421 484 25,000 -60 Level Albuquerque Center
03:55PM 33.0386 -113.3169 59° Northeast 417 480 24,900 -960 Descending Albuquerque Center
03:56PM 33.0931 -113.2019 61° Northeast 404 465 23,100 -1,980 Descending Albuquerque Center
03:57PM 33.1506 -113.0869 59° Northeast 402 463 20,900 -2,040 Descending Albuquerque Center
03:58PM 33.2011 -112.9861 59° Northeast 358 412 19,000 -1,800 Descending Albuquerque Center
03:59PM 33.2486 -112.8883 60° Northeast 340 391 17,200 -1,500 Descending Albuquerque Center
04:00PM 33.2808 -112.7664 72° East 326 375 16,000 -960 Descending Albuquerque Center
04:01PM 33.2836 -112.6569 88° East 329 379 15,300 -1,140 Descending Albuquerque Center
04:02PM 33.2864 -112.5453 88° East 322 371 13,700 -1,560 Descending Albuquerque Center
04:03PM 33.2897 -112.4378 88° East 325 374 12,100 -1,500 Descending Albuquerque Center
04:04PM 33.2925 -112.3317 88° East 321 369 10,700 -1,080 Descending Albuquerque Center
04:05PM 33.3008 -112.2322 84° East 305 351 10,000 -780 Descending Albuquerque Center
04:06PM 33.3075 -112.1372 85° East 288 331 9,200 -840 Descending Albuquerque Center
04:08PM 33.3206 -112.0561 79° East 255 293 8,300 -1,080 Descending Albuquerque Center
04:09PM 33.3442 -111.9592 74° East 253 291 7,000 -1,080 Descending Albuquerque Center
04:10PM 33.3453 -111.8797 89° East 239 275 6,200 -1,140 Descending Albuquerque Center
04:11PM 33.3586 -111.8064 78° East 242 278 4,700 -1,440 Descending Albuquerque Center
04:12PM 33.4133 -111.8236 345° North 235 270 3,300 -1,020 Descending Albuquerque Center
04:13PM 33.4333 -111.9000 287° West 217 250 2,700 -780 Descending Phoenix TRACON
04:14PM 33.4333 -111.9500 270° West 174 200 1,800 -780 Descending Phoenix TRACON
04:15PM 33.4333 -111.8667 90° East 129 148 1,100 -600 Descending Phoenix TRACON